Terminal Aerodrome Forecast
Issued by NWS Louisville, KY

Home | Current Version | Previous Version | Text Only | Print | Product List | Glossary On
Versions: 1 2 3 4 5 6 7 8 9 10 11 12 13 14
681
FTUS43 KLMK 081153 AAA
TAFLEX
TAF AMD
KLEX 081153Z 0812/0912 27008KT P6SM -RA OVC025
      TEMPO 0812/0814 3SM RA BKN012
     FM081500 27010KT P6SM VCSH OVC025
     FM081900 27012G20KT 3SM -RASN BR OVC018
      TEMPO 0821/0824 2SM -SN BR OVC012
     FM090000 27012KT 3SM -SN BR OVC015
     FM090700 27008KT 5SM BR VCSH BKN015=

USA.gov is the U.S. government's official web portal to all federal, state and local government web resources and services.